• Join FlightAware (Why Join?)
  • Login
  • US Flag 
03:18PM EDT


 

Airport Tracker/Info


-or-


 

Live Flight TrackerFlight Track Log ✈ N850FD ✈ 19-Apr-2013 ✈ ZSPD / PVG - KMEM

Flight Track Log - Related Links

Times and Time Zones

All times are in EDT time to prevent confusion due to time zone crossing. See the N850FD flight status page for this flight to view local times or setup timezone preferences in your user account.

Time Position Orientation Groundspeed Altitude Reporting Facility
EDT Latitude Longitude Course Direction KTS MPH feet Rate Location/Type
11:32AM 31.3110 121.7350 354° North 295 339 4,400  Level FlightAware
11:32AM 31.3470 121.7540 24° Northeast 292 336 5,400 1,920 Climbing FlightAware
11:33AM 31.3750 121.8580 72° East 325 374 7,500 1,920 Climbing FlightAware
11:34AM 31.4000 121.9110 61° Northeast 338 389 8,600 1,860 Climbing FlightAware
11:34AM 31.4180 121.9460 59° Northeast 349 402 9,400 780 Climbing FlightAware
11:35AM 31.4430 121.9950 59° Northeast 349 402 9,400 1,500 Level FlightAware
11:36AM 31.4870 122.0850 60° Northeast 402 463 11,300 2,460 Climbing FlightAware
11:37AM 31.5400 122.1940 60° Northeast 422 486 13,300 2,100 Climbing FlightAware
11:37AM 31.5830 122.2830 60° Northeast 433 498 14,800 1,680 Climbing FlightAware
11:38AM 31.6200 122.3680 63° Northeast 443 510 15,700 600 Climbing FlightAware
11:39AM 31.6390 122.4650 77° East 442 509 15,700  Level FlightAware
11:40AM 31.6610 122.6390 82° East 443 510 15,700  Level FlightAware
11:41AM 31.6840 122.8200 81° East 445 512 15,800 780 Climbing FlightAware
11:42AM 31.7020 122.9510 81° East 452 520 17,500 1,020 Climbing FlightAware
11:43AM 31.7130 123.0330 81° East 452 520 17,500  Level FlightAware
11:43AM 31.7240 123.1160 81° East 452 520 17,500  Level FlightAware
11:44AM 31.7380 123.2190 81° East 452 520 17,500  Level FlightAware
11:45AM 31.7490 123.3020 81° East 452 520 17,500  Level FlightAware
11:46AM 31.7600 123.3840 81° East 452 520 17,500 3,600 Level FlightAware
11:47AM 31.6980 123.7290 102° East 521 600 24,800 3,360 Climbing FlightAware
11:48AM 31.6630 123.8420 110° East 521 600 24,800  Level FlightAware
11:48AM 31.6350 123.9330 110° East 521 600 24,800  Level FlightAware
11:49AM 31.6070 124.0230 110° East 521 600 24,800  Level FlightAware
11:50AM 31.5790 124.1140 110° East 521 600 24,800  Level FlightAware
11:50AM 31.5510 124.2040 110° East 521 600 24,800 180 Level FlightAware
11:53AM 31.7839 124.3534 75° East  Level Estimated
11:54AM 31.7961 124.5050 85° East  Level FlightAware Approximate
11:55AM 31.8081 124.6566 85° East  Level FlightAware Approximate
11:56AM 31.8199 124.8083 85° East  Level FlightAware Approximate
11:57AM 31.9331 124.8823 75° East  Level Estimated
11:58AM 31.9579 125.0320 79° East  Level FlightAware Approximate
11:59AM 31.9825 125.1817 79° East  Level FlightAware Approximate
12:00PM 32.0070 125.3316 79° East  Level FlightAware Approximate
12:01PM 32.0313 125.4816 79° East  Level FlightAware Approximate
12:02PM 32.0554 125.6316 79° East  Level FlightAware Approximate
12:03PM 32.0794 125.7817 79° East  Level FlightAware Approximate
12:04PM 32.1031 125.9318 79° East  Level FlightAware Approximate
12:05PM 32.1267 126.0821 79° East  Level FlightAware Approximate
12:06PM 32.1501 126.2324 80° East  Level FlightAware Approximate
12:07PM 32.1734 126.3828 80° East  Level FlightAware Approximate
12:08PM 32.2853 126.4596 75° East  Level Estimated
12:09PM 32.3110 126.6097 79° East  Level FlightAware Approximate
12:10PM 32.3365 126.7599 79° East  Level FlightAware Approximate
12:11PM 32.3618 126.9101 79° East  Level FlightAware Approximate
12:12PM 32.3870 127.0604 79° East  Level FlightAware Approximate
12:13PM 32.4120 127.2109 79° East  Level FlightAware Approximate
12:14PM 32.4368 127.3613 79° East  Level FlightAware Approximate
12:15PM 32.4614 127.5119 79° East  Level FlightAware Approximate
12:16PM 32.4858 127.6626 79° East  Level FlightAware Approximate
12:17PM 32.5101 127.8133 79° East  Level FlightAware Approximate
12:17PM 32.8220 128.7690 79° East 540 621 31,000  Level FlightAware
12:18PM 32.8540 128.8810 71° East 540 621 31,000  Level FlightAware
12:19PM 32.8870 128.9950 71° East 542 624 31,000  Level FlightAware
12:19PM 32.9230 129.1210 71° East 542 624 31,000  Level FlightAware
12:20PM 32.9560 129.2340 71° East 543 625 31,000  Level FlightAware
12:21PM 32.9880 129.3470 71° East 543 625 31,000  Level FlightAware
12:21PM 33.0240 129.4740 71° East 545 627 31,000  Level FlightAware
12:22PM 33.0550 129.5840 71° East 544 626 31,000  Level FlightAware
12:23PM 33.0930 129.7170 71° East 543 625 31,000  Level FlightAware
12:23PM 33.1220 129.8210 72° East 543 625 31,000  Level FlightAware
12:24PM 33.1600 129.9580 72° East 542 624 31,000  Level FlightAware
12:25PM 33.1920 130.0720 71° East 542 624 31,000  Level FlightAware
12:26PM 33.2220 130.1820 72° East 542 624 31,000  Level FlightAware
12:26PM 33.2590 130.3140 71° East 542 624 31,000  Level FlightAware
12:27PM 33.2900 130.4280 72° East 542 624 31,000  Level FlightAware
12:28PM 33.3210 130.5420 72° East 542 624 31,000  Level FlightAware
12:28PM 33.3560 130.6700 72° East 542 624 31,000  Level FlightAware
12:29PM 33.3870 130.7850 72° East 544 626 31,000  Level FlightAware
12:30PM 33.4210 130.9120 72° East 545 627 31,000  Level FlightAware
12:30PM 33.4530 131.0280 72° East 544 626 31,000  Level FlightAware
12:31PM 33.4830 131.1410 72° East 545 627 31,000  Level FlightAware
12:32PM 33.5160 131.2660 72° East 546 628 31,000  Level FlightAware
12:33PM 33.5480 131.3850 72° East 546 628 31,000  Level FlightAware
12:33PM 33.5820 131.5140 72° East 546 628 31,000  Level FlightAware
12:34PM 33.6130 131.6340 73° East 546 628 31,000  Level FlightAware
12:35PM 33.6430 131.7480 72° East 549 632 31,000  Level FlightAware
12:35PM 33.6770 131.8790 73° East 551 634 31,000  Level FlightAware
12:36PM 33.7080 131.9990 73° East 553 636 31,000  Level FlightAware
12:37PM 33.7420 132.1300 73° East 555 639 31,000  Level FlightAware
12:37PM 33.7720 132.2470 73° East 555 639 31,000  Level FlightAware
12:38PM 33.8030 132.3650 72° East 556 640 31,000  Level FlightAware
12:39PM 33.8370 132.4990 73° East 555 639 31,000  Level FlightAware
12:40PM 33.8670 132.6170 73° East 553 636 31,000  Level FlightAware
12:40PM 33.9000 132.7480 73° East 554 638 31,000  Level FlightAware
12:41PM 33.9290 132.8670 74° East 556 640 31,000  Level FlightAware
12:42PM 33.9590 132.9860 73° East 555 639 31,000  Level FlightAware
12:42PM 33.9920 133.1180 73° East 556 640 31,000  Level FlightAware
12:43PM 34.0210 133.2370 74° East 555 639 31,000  Level FlightAware
12:44PM 34.0550 133.3710 73° East 557 641 31,000  Level FlightAware
12:44PM 34.0830 133.4880 74° East 556 640 31,000  Level FlightAware
12:45PM 34.1150 133.6200 74° East 555 639 31,000  Level FlightAware
12:46PM 34.1450 133.7420 73° East 554 638 31,000  Level FlightAware
12:47PM 34.1720 133.8560 74° East 551 634 31,000  Level FlightAware
12:47PM 34.2040 133.9860 73° East 554 638 31,000  Level FlightAware
12:50PM 34.2648 134.3289 76° East  Level FlightAware Approximate
12:50PM 34.3010 134.4680 76° East 562 647 31,000  Level FlightAware
12:51PM 34.3250 134.5900 77° East 563 648 31,000  Level FlightAware
12:51PM 34.3490 134.7100 76° East 564 649 31,000  Level FlightAware
12:52PM 34.3740 134.8370 77° East 565 650 31,000  Level FlightAware
12:53PM 34.3970 134.9510 76° East 564 649 31,000  Level FlightAware
12:54PM 34.4470 135.1200 70° East 559 643 31,000  Level FlightAware
12:55PM 34.5230 135.3730 70° East 560 644 31,000  Level FlightAware
12:56PM 34.5720 135.5370 70° East 559 643 31,000  Level FlightAware
12:57PM 34.6480 135.7800 69° East 558 642 31,000  Level FlightAware
12:58PM 34.6910 135.9200 69° East 557 641 31,000  Level FlightAware
12:59PM 34.7260 136.0350 70° East 558 642 31,000  Level FlightAware
12:59PM 34.7620 136.1540 70° East 557 641 31,000  Level FlightAware
01:00PM 34.7970 136.2680 69° East 558 642 31,000  Level FlightAware
01:01PM 34.8340 136.3920 70° East 559 643 31,000  Level FlightAware
01:01PM 34.8740 136.5240 70° East 561 646 31,000  Level FlightAware
01:02PM 34.9080 136.6390 70° East 561 646 31,000  Level FlightAware
01:03PM 34.9470 136.7690 70° East 561 646 31,000  Level FlightAware
01:03PM 34.9820 136.8880 70° East 560 644 31,000  Level FlightAware
01:05PM 35.0350 137.0670 70° East 556 640 31,000  Level FlightAware
01:05PM 35.0720 137.1910 70° East 556 640 31,000  Level FlightAware
01:06PM 35.1060 137.3070 70° East 556 640 31,000  Level FlightAware
01:07PM 35.1390 137.4190 70° East 555 639 31,000  Level FlightAware
01:07PM 35.1860 137.5820 71° East 556 640 31,000  Level FlightAware
01:08PM 35.2210 137.7020 70° East 559 643 31,000  Level FlightAware
01:09PM 35.2560 137.8250 71° East 558 642 31,000  Level FlightAware
01:11PM 35.4403 137.9996 38° Northeast  Level Estimated
01:12PM 35.5426 138.0970 38° Northeast  Level Estimated
01:13PM 35.6449 138.1947 38° Northeast  Level Estimated
01:14PM 35.7470 138.2925 38° Northeast  Level Estimated
01:15PM 35.8491 138.3907 38° Northeast  Level Estimated
01:15PM 35.5620 138.9110 38° Northeast 565 650 31,000  Level FlightAware
01:16PM 35.6000 139.0500 71° East 567 652 31,000  Level FlightAware
01:16PM 35.6250 139.1400 71° East 569 655 31,000  Level FlightAware
01:17PM 35.6580 139.2630 72° East 571 657 31,000  Level FlightAware
01:17PM 35.6930 139.3900 71° East 572 658 31,000  Level FlightAware
01:18PM 35.7310 139.5310 72° East 574 661 31,000  Level FlightAware
01:19PM 35.7630 139.6530 72° East 575 662 31,000  Level FlightAware
01:19PM 35.7970 139.7790 72° East 575 662 31,000  Level FlightAware
01:20PM 35.8340 139.9160 72° East 575 662 31,000  Level FlightAware
01:21PM 35.8670 140.0430 72° East 574 661 31,000  Level FlightAware
01:22PM 35.9040 140.1810 72° East 573 659 31,000  Level FlightAware
01:22PM 35.9350 140.3000 72° East 573 659 31,000  Level FlightAware
01:23PM 35.9740 140.4480 72° East 569 655 31,000  Level FlightAware
01:24PM 36.0060 140.5710 72° East 576 663 31,000  Level FlightAware
01:24PM 36.0380 140.6950 72° East 580 667 31,000  Level FlightAware
01:25PM 36.0660 140.8040 72° East 581 669 31,000  Level FlightAware
01:26PM 36.1180 141.0060 72° East 584 672 31,000  Level FlightAware
01:27PM 36.1780 141.2470 73° East 583 671 31,000  Level FlightAware
01:28PM 36.2340 141.4700 73° East 579 666 31,000  Level FlightAware
01:30PM 36.2940 141.7090 73° East 582 670 31,000  Level FlightAware
01:31PM 36.3420 141.9020 73° East 588 677 31,000  Level FlightAware
01:31PM 36.3700 142.0190 73° East 589 678 31,000  Level FlightAware
01:32PM 36.4100 142.1800 73° East 589 678 31,000  Level FlightAware
01:33PM 36.4430 142.3170 73° East 590 679 31,000  Level FlightAware
01:34PM 36.4750 142.4500 73° East 588 677 31,000  Level FlightAware
01:34PM 36.5030 142.5680 74° East 587 676 31,000  Level FlightAware
01:35PM 36.5380 142.7140 73° East 587 676 31,000  Level FlightAware
01:36PM 36.5670 142.8410 74° East 587 676 31,000  Level FlightAware
01:36PM 36.6000 142.9770 73° East 587 676 31,000  Level FlightAware
01:37PM 36.6460 143.1740 74° East 586 674 31,000  Level FlightAware
01:38PM 36.6710 143.2840 74° East 586 674 31,000  Level FlightAware
01:39PM 36.6970 143.3950 74° East 586 674 31,000  Level FlightAware
01:39PM 36.7220 143.5050 74° East 586 674 31,000  Level FlightAware
01:40PM 36.7480 143.6160 74° East 586 674 31,000  Level FlightAware
01:41PM 36.7730 143.7260 74° East 586 674 31,000  Level FlightAware
01:41PM 36.8050 143.8650 74° East 586 674 31,000  Level FlightAware
01:42PM 36.8300 143.9750 74° East 586 674 31,000  Level FlightAware
01:43PM 36.8550 144.0860 74° East 586 674 31,000  Level FlightAware
01:43PM 36.8810 144.1970 74° East 586 674 31,000  Level FlightAware
01:44PM 36.9060 144.3080 74° East 586 674 31,000  Level FlightAware
01:45PM 36.9380 144.4460 74° East 586 674 31,000  Level FlightAware
01:46PM 36.9630 144.5570 74° East 586 674 31,000  Level FlightAware
01:46PM 36.9890 144.6680 74° East 586 674 31,000  Level FlightAware
01:49PM 37.0590 145.0165 76° East  Level FlightAware Approximate
01:50PM 37.0903 145.1739 76° East  Level FlightAware Approximate
01:51PM 37.1213 145.3315 76° East  Level FlightAware Approximate
01:52PM 37.1521 145.4891 76° East  Level FlightAware Approximate
01:53PM 37.1854 145.6524 43° Northeast  Level FlightAware Approximate
01:54PM 37.2804 145.7628 43° Northeast  Level FlightAware Approximate
01:55PM 37.3754 145.8734 43° Northeast  Level FlightAware Approximate
01:56PM 37.4702 145.9843 43° Northeast  Level FlightAware Approximate
01:57PM 37.5650 146.0955 43° Northeast  Level FlightAware Approximate
01:58PM 37.6596 146.2070 43° Northeast  Level FlightAware Approximate
01:59PM 37.7541 146.3187 43° Northeast  Level FlightAware Approximate
02:00PM 37.8485 146.4308 43° Northeast  Level FlightAware Approximate
02:01PM 37.9428 146.5431 43° Northeast  Level FlightAware Approximate
02:02PM 38.0370 146.6557 43° Northeast  Level FlightAware Approximate
02:03PM 38.1311 146.7686 43° Northeast  Level FlightAware Approximate
02:04PM 38.2251 146.8818 43° Northeast  Level FlightAware Approximate
02:05PM 38.3190 146.9953 43° Northeast  Level FlightAware Approximate
02:06PM 38.4128 147.1091 44° Northeast  Level FlightAware Approximate
02:07PM 38.5064 147.2232 44° Northeast  Level FlightAware Approximate
02:08PM 38.6000 147.3376 44° Northeast  Level FlightAware Approximate
02:09PM 38.6934 147.4522 44° Northeast  Level FlightAware Approximate
02:10PM 38.7868 147.5672 44° Northeast  Level FlightAware Approximate
02:11PM 38.8800 147.6825 44° Northeast  Level FlightAware Approximate
02:12PM 38.9731 147.7981 44° Northeast  Level FlightAware Approximate
02:13PM 39.0660 147.9140 44° Northeast  Level FlightAware Approximate
02:14PM 39.1589 148.0301 44° Northeast  Level FlightAware Approximate
02:15PM 39.2517 148.1466 44° Northeast  Level FlightAware Approximate
02:16PM 39.3443 148.2634 44° Northeast  Level FlightAware Approximate
02:17PM 39.4368 148.3806 44° Northeast  Level FlightAware Approximate
02:18PM 39.5292 148.4980 44° Northeast  Level FlightAware Approximate
02:19PM 39.6215 148.6157 44° Northeast  Level FlightAware Approximate
02:20PM 39.7137 148.7338 45° Northeast  Level FlightAware Approximate
02:21PM 39.8057 148.8521 45° Northeast  Level FlightAware Approximate
02:22PM 39.8976 148.9708 45° Northeast  Level FlightAware Approximate
02:23PM 39.9894 149.0898 45° Northeast  Level FlightAware Approximate
02:24PM 40.0811 149.2091 45° Northeast  Level FlightAware Approximate
02:25PM 40.1727 149.3288 45° Northeast  Level FlightAware Approximate
02:26PM 40.2641 149.4487 45° Northeast  Level FlightAware Approximate
02:27PM 40.3554 149.5690 45° Northeast  Level FlightAware Approximate
02:28PM 40.4467 149.6895 45° Northeast  Level FlightAware Approximate
02:29PM 40.5381 149.8101 45° Northeast  Level FlightAware Approximate
02:30PM 40.6293 149.9310 45° Northeast  Level FlightAware Approximate
02:31PM 40.7204 150.0522 45° Northeast  Level FlightAware Approximate
02:32PM 40.8114 150.1737 45° Northeast  Level FlightAware Approximate
02:33PM 40.9023 150.2956 45° Northeast  Level FlightAware Approximate
02:34PM 40.9930 150.4178 45° Northeast  Level FlightAware Approximate
02:35PM 41.0836 150.5403 46° Northeast  Level FlightAware Approximate
02:36PM 41.1741 150.6632 46° Northeast  Level FlightAware Approximate
02:37PM 41.2644 150.7865 46° Northeast  Level FlightAware Approximate
02:38PM 41.3546 150.9100 46° Northeast  Level FlightAware Approximate
02:39PM 41.4447 151.0339 46° Northeast  Level FlightAware Approximate
02:40PM 41.5344 151.1585 47° Northeast  Level FlightAware Approximate
02:41PM 41.6230 151.2846 47° Northeast  Level FlightAware Approximate
02:42PM 41.7115 151.4111 47° Northeast  Level FlightAware Approximate
02:43PM 41.7998 151.5379 47° Northeast  Level FlightAware Approximate
02:44PM 41.8880 151.6650 47° Northeast  Level FlightAware Approximate
02:45PM 41.9761 151.7925 47° Northeast  Level FlightAware Approximate
02:46PM 42.0641 151.9202 47° Northeast  Level FlightAware Approximate
02:47PM 42.1528 152.0473 47° Northeast  Level FlightAware Approximate
02:48PM 42.2413 152.1748 47° Northeast  Level FlightAware Approximate
02:49PM 42.3297 152.3026 47° Northeast  Level FlightAware Approximate
02:50PM 42.4179 152.4308 47° Northeast  Level FlightAware Approximate
02:51PM 42.5060 152.5594 47° Northeast  Level FlightAware Approximate
02:52PM 42.5939 152.6883 47° Northeast  Level FlightAware Approximate
02:53PM 42.6817 152.8175 47° Northeast  Level FlightAware Approximate
02:54PM 42.7694 152.9472 47° Northeast  Level FlightAware Approximate
02:55PM 42.8569 153.0772 47° Northeast  Level FlightAware Approximate
02:56PM 42.9442 153.2076 48° Northeast  Level FlightAware Approximate
02:57PM 43.0314 153.3383 48° Northeast  Level FlightAware Approximate
02:58PM 43.1185 153.4694 48° Northeast  Level FlightAware Approximate
02:59PM 43.2058 153.6004 48° Northeast  Level FlightAware Approximate
03:00PM 43.2929 153.7318 48° Northeast  Level FlightAware Approximate
03:01PM 43.3799 153.8635 48° Northeast  Level FlightAware Approximate
03:02PM 43.4668 153.9957 48° Northeast  Level FlightAware Approximate
03:03PM 43.5535 154.1282 48° Northeast  Level FlightAware Approximate
03:04PM 43.6400 154.2610 48° Northeast  Level FlightAware Approximate
03:05PM 43.7264 154.3943 48° Northeast  Level FlightAware Approximate
03:06PM 43.8127 154.5280 48° Northeast  Level FlightAware Approximate
03:07PM 43.8987 154.6620 48° Northeast  Level FlightAware Approximate
03:08PM 43.9847 154.7964 48° Northeast  Level FlightAware Approximate
03:09PM 44.0704 154.9313 48° Northeast  Level FlightAware Approximate
03:10PM 44.1560 155.0665 49° Northeast  Level FlightAware Approximate
03:11PM 44.2397 155.2043 50° Northeast  Level FlightAware Approximate
03:12PM 44.3229 155.3427 50° Northeast  Level FlightAware Approximate
03:13PM 44.4059 155.4816 50° Northeast  Level FlightAware Approximate
03:14PM 44.4888 155.6209 50° Northeast  Level FlightAware Approximate
03:15PM 44.5715 155.7605 50° Northeast  Level FlightAware Approximate
03:16PM 44.6540 155.9006 50° Northeast  Level FlightAware Approximate
03:17PM 44.7364 156.0411 50° Northeast  Level FlightAware Approximate
03:18PM 44.8186 156.1819 51° Northeast  Level FlightAware Approximate
03:19PM 44.9006 156.3232 51° Northeast  Level FlightAware Approximate
03:20PM 44.9824 156.4648 51° Northeast  Level FlightAware Approximate
03:21PM 45.0641 156.6069 51° Northeast  Level FlightAware Approximate
03:22PM 45.1456 156.7494 51° Northeast  Level FlightAware Approximate
03:23PM 45.2269 156.8923 51° Northeast  Level FlightAware Approximate
03:24PM 45.3080 157.0356 51° Northeast  Level FlightAware Approximate
03:25PM 45.3890 157.1793 51° Northeast  Level FlightAware Approximate
03:26PM 45.4697 157.3234 51° Northeast  Level FlightAware Approximate
03:27PM 45.5503 157.4679 51° Northeast  Level FlightAware Approximate
03:28PM 45.6307 157.6128 52° Northeast  Level FlightAware Approximate
03:29PM 45.7109 157.7582 52° Northeast  Level FlightAware Approximate
03:30PM 45.7910 157.9040 52° Northeast  Level FlightAware Approximate
03:31PM 45.8708 158.0502 52° Northeast  Level FlightAware Approximate
03:31PM 47.5500 161.3333 55° Northeast 535 616 31,000  Level Anchorage Center
03:32PM 45.9505 158.1968 52° Northeast  Level FlightAware Approximate
03:33PM 46.0299 158.3438 52° Northeast  Level FlightAware Approximate
03:34PM 46.1092 158.4913 52° Northeast  Level FlightAware Approximate
03:35PM 46.1883 158.6391 52° Northeast  Level FlightAware Approximate
03:35PM 47.8500 161.9500 55° Northeast 533 613 31,000  Level Anchorage Center
03:36PM 46.2672 158.7874 52° Northeast  Level FlightAware Approximate
03:37PM 46.3459 158.9362 52° Northeast  Level FlightAware Approximate
03:38PM 48.1270 162.5596 55° Northeast 535 616 31,000  Level FlightAware Transoceanic
03:39PM 48.2083 162.7370 56° Northeast 535 616 31,000  Level FlightAware Transoceanic
03:40PM 48.2894 162.9150 56° Northeast 535 616 31,000  Level FlightAware Transoceanic
03:41PM 48.3476 163.0328 56° Northeast 533 613 31,000  Level FlightAware Transoceanic
03:42PM 48.4296 163.2154 56° Northeast 533 613 31,000  Level FlightAware Transoceanic
03:43PM 48.5112 163.3985 56° Northeast 533 613 31,000  Level FlightAware Transoceanic
03:44PM 48.5926 163.5822 56° Northeast 533 613 31,000  Level FlightAware Transoceanic
03:44PM 48.6500 163.7167 56° Northeast 534 615 31,000  Level Anchorage Center
03:45PM 48.6736 163.7665 56° Northeast 533 613 31,000  Level FlightAware Transoceanic
03:46PM 48.7544 163.9513 57° Northeast 533 613 31,000  Level FlightAware Transoceanic
03:47PM 48.8349 164.1368 57° Northeast 533 613 31,000  Level FlightAware Transoceanic
03:48PM 48.9151 164.3229 57° Northeast 533 613 31,000  Level FlightAware Transoceanic
03:49PM 48.9949 164.5096 57° Northeast 533 613 31,000  Level FlightAware Transoceanic
03:50PM 49.0745 164.6968 57° Northeast 533 613 31,000  Level FlightAware Transoceanic
03:51PM 49.1413 164.8573 57° Northeast 534 615 31,000  Level FlightAware Transoceanic
03:52PM 49.2221 165.0496 57° Northeast 534 615 31,000  Level FlightAware Transoceanic
03:53PM 49.3026 165.2426 57° Northeast 534 615 31,000  Level FlightAware Transoceanic
03:54PM 49.3827 165.4361 58° Northeast 534 615 31,000  Level FlightAware Transoceanic
03:54PM 49.4167 165.5167 58° Northeast 531 611 31,000  Level Anchorage Center
03:55PM 49.4625 165.6303 58° Northeast 534 615 31,000  Level FlightAware Transoceanic
03:56PM 49.5420 165.8251 58° Northeast 534 615 31,000  Level FlightAware Transoceanic
03:57PM 49.6212 166.0206 58° Northeast 534 615 31,000  Level FlightAware Transoceanic
03:58PM 49.7000 166.2167 55° Northeast 534 615 31,000  Level FlightAware Transoceanic
03:58PM 49.7000 166.2167 55° Northeast 527 606 31,000  Level Anchorage Center
03:59PM 49.7796 166.3960 56° Northeast 534 615 31,000  Level FlightAware Transoceanic
04:00PM 49.8589 166.5760 56° Northeast 531 611 31,000  Level FlightAware Transoceanic
04:01PM 49.9379 166.7565 56° Northeast 531 611 31,000  Level FlightAware Transoceanic
04:02PM 50.0167 166.9376 56° Northeast 531 611 31,000  Level FlightAware Transoceanic
04:03PM 50.0951 167.1193 56° Northeast 531 611 31,000  Level FlightAware Transoceanic
04:03PM 50.1500 167.3833 56° Northeast 525 604 31,000  Level Anchorage Center
04:04PM 50.1850 167.3291 56° Northeast 527 606 31,000  Level FlightAware Transoceanic
04:05PM 50.2648 167.5166 56° Northeast 527 606 31,000  Level FlightAware Transoceanic
04:06PM 50.3443 167.7048 57° Northeast 527 606 31,000  Level FlightAware Transoceanic
04:07PM 50.4235 167.8937 57° Northeast 527 606 31,000  Level FlightAware Transoceanic
04:08PM 50.5024 168.0831 57° Northeast 527 606 31,000  Level FlightAware Transoceanic
04:09PM 50.5810 168.2733 57° Northeast 527 606 31,000  Level FlightAware Transoceanic
04:10PM 50.6299 168.5085 57° Northeast 525 604 31,000  Level FlightAware Transoceanic
04:11PM 50.7089 168.6982 57° Northeast 525 604 31,000  Level FlightAware Transoceanic
04:12PM 50.7875 168.8886 57° Northeast 525 604 31,000  Level FlightAware Transoceanic
04:13PM 50.8658 169.0796 57° Northeast 525 604 31,000  Level FlightAware Transoceanic
04:13PM 50.8500 169.2667 56° Northeast 518 596 31,000  Level Anchorage Center
04:14PM 50.9438 169.2713 57° Northeast 525 604 31,000  Level FlightAware Transoceanic
04:15PM 51.0215 169.4636 57° Northeast 525 604 31,000  Level FlightAware Transoceanic
04:15PM 50.9833 169.7167 57° Northeast 520 598 31,000  Level Anchorage Center
04:16PM 51.0988 169.6565 58° Northeast 525 604 31,000  Level FlightAware Transoceanic
04:16PM 51.0500 169.8833 57° Northeast 520 598 31,000  Level Anchorage Center
04:17PM 51.1759 169.8501 58° Northeast 525 604 31,000  Level FlightAware Transoceanic
04:17PM 51.1167 170.1000 64° Northeast 520 598 31,000  Level Anchorage Center
04:18PM 51.2526 170.0444 58° Northeast 525 604 31,000  Level FlightAware Transoceanic
04:18PM 51.1833 170.2833 60° Northeast 520 598 31,000  Level Anchorage Center
04:19PM 51.3156 170.3826 57° Northeast 518 596 31,000  Level FlightAware Transoceanic
04:19PM 51.2667 170.5000 58° Northeast 520 598 31,000  Level Anchorage Center
04:20PM 51.3922 170.5707 57° Northeast 518 596 31,000  Level FlightAware Transoceanic
04:20PM 51.3333 170.7167 64° Northeast 510 587 31,000  Level Anchorage Center
04:21PM 51.3833 170.8833 64° Northeast 520 598 31,000  Level Anchorage Center
04:22PM 51.4667 171.1167 60° Northeast 520 598 31,000  Level Anchorage Center
04:23PM 51.5333 171.2833 57° Northeast 520 598 31,000  Level Anchorage Center
04:24PM 51.6167 171.4667 54° Northeast 500 575 31,000  Level Anchorage Center
04:25PM 51.6833 171.6333 57° Northeast 500 575 31,000  Level Anchorage Center
04:26PM 51.7667 171.8333 56° Northeast 500 575 31,000  Level Anchorage Center
04:27PM 51.8333 171.9833 54° Northeast 500 575 31,000  Level Anchorage Center
04:28PM 51.9333 172.1833 51° Northeast 500 575 31,000 720 Level Anchorage Center
04:29PM 52.0167 172.4000 58° Northeast 510 587 32,500 960 Climbing Anchorage Center
04:30PM 52.0833 172.5500 54° Northeast 490 564 33,000 240 Climbing Anchorage Center
04:31PM 52.1667 172.7500 56° Northeast 490 564 33,000  Level Anchorage Center
04:32PM 52.2333 172.9167 57° Northeast 490 564 33,000  Level Anchorage Center
04:33PM 52.3167 173.1167 56° Northeast 490 564 33,000  Level Anchorage Center
04:34PM 52.3833 173.2833 57° Northeast 490 564 33,000  Level Anchorage Center
04:35PM 52.4667 173.4833 56° Northeast 490 564 33,000  Level Anchorage Center
04:36PM 52.5333 173.6500 57° Northeast 490 564 33,000  Level Anchorage Center
04:37PM 52.6167 173.8500 55° Northeast 490 564 33,000  Level Anchorage Center
04:40PM 52.7375 174.1050 58° Northeast  Level FlightAware Approximate
04:41PM 52.9000 174.5833 58° Northeast 490 564 33,000  Level Anchorage Center
04:42PM 52.9500 174.7500 63° Northeast 490 564 33,000  Level Anchorage Center
04:43PM 53.0333 174.9500 55° Northeast 490 564 33,000  Level Anchorage Center
04:44PM 53.1000 175.1167 56° Northeast 480 552 33,000  Level Anchorage Center
04:45PM 53.1833 175.3333 57° Northeast 490 564 33,000  Level Anchorage Center
04:46PM 53.2333 175.5000 63° Northeast 490 564 33,000  Level Anchorage Center
04:47PM 53.3167 175.7167 57° Northeast 480 552 33,000  Level Anchorage Center
04:48PM 53.3833 175.8833 56° Northeast 490 564 33,000  Level Anchorage Center
04:49PM 53.4500 176.0833 61° Northeast 480 552 33,000  Level Anchorage Center
04:50PM 53.5167 176.3000 63° Northeast 480 552 33,000  Level Anchorage Center
04:51PM 53.5833 176.4667 56° Northeast 480 552 33,000  Level Anchorage Center
04:52PM 53.6500 176.6833 62° Northeast 480 552 33,000  Level Anchorage Center
04:53PM 53.7167 176.8667 58° Northeast 480 552 33,000  Level Anchorage Center
04:54PM 53.8000 177.0667 55° Northeast 480 552 33,000  Level Anchorage Center
04:55PM 53.8500 177.2333 63° Northeast 480 552 33,000  Level Anchorage Center
04:56PM 53.9167 177.4500 62° Northeast 480 552 33,000  Level Anchorage Center
04:57PM 53.9833 177.6333 58° Northeast 480 552 33,000  Level Anchorage Center
04:58PM 54.0500 177.8500 62° Northeast 480 552 33,000  Level Anchorage Center
04:59PM 54.1167 178.0667 62° Northeast 480 552 33,000  Level Anchorage Center
05:00PM 54.1833 178.2333 56° Northeast 470 541 33,000  Level Anchorage Center
05:01PM 54.2500 178.4500 62° Northeast 480 552 33,000  Level Anchorage Center
05:03PM 54.3667 178.8000 60° Northeast 490 564 33,000  Level Anchorage Center
05:05PM 54.4840 179.1353 62° Northeast  Level FlightAware Approximate
05:11PM 54.8667 -179.6667 63° Northeast 468 539 33,000  Level Anchorage Center
05:12PM 54.9634 -179.2916 62° Northeast  Level FlightAware Approximate
05:13PM 55.0302 -179.0638 63° Northeast  Level FlightAware Approximate
05:14PM 55.0966 -178.8353 63° Northeast  Level FlightAware Approximate
05:15PM 55.1626 -178.6060 63° Northeast  Level FlightAware Approximate
05:16PM 55.2278 -178.3757 64° Northeast  Level FlightAware Approximate
05:17PM 55.2924 -178.1445 64° Northeast  Level FlightAware Approximate
05:18PM 55.2863 -178.2080 64° Northeast 468 539 33,000  Level FlightAware Transoceanic
05:18PM 55.2000 -178.5333 64° Northeast 465 535 33,000  Level Anchorage Center
05:18PM 55.2000 -178.5333 64° Northeast 465 535 33,000  Level Anchorage Center
05:19PM 55.3448 -177.9971 64° Northeast 468 539 33,000  Level FlightAware Transoceanic
05:20PM 55.4029 -177.7856 64° Northeast 468 539 33,000  Level FlightAware Transoceanic
05:20PM 55.4167 -177.7333 64° Northeast 466 536 33,000  Level Anchorage Center
05:21PM 55.4607 -177.5735 64° Northeast 468 539 33,000  Level FlightAware Transoceanic
05:22PM 55.5181 -177.3607 65° Northeast 468 539 33,000  Level FlightAware Transoceanic
05:23PM 55.5752 -177.1474 65° Northeast 468 539 33,000  Level FlightAware Transoceanic
05:24PM 55.6002 -177.0685 65° Northeast 465 535 33,000  Level FlightAware Transoceanic
05:24PM 55.6167 -176.8667 66° East 460 529 33,000  Level Anchorage Center
05:25PM 55.6559 -176.8568 65° Northeast 465 535 33,000  Level FlightAware Transoceanic
05:25PM 55.6667 -176.6667 66° East 460 529 33,000  Level Anchorage Center
05:26PM 55.6995 -176.6736 65° Northeast 466 536 33,000  Level FlightAware Transoceanic
05:26PM 55.7167 -176.4500 68° East 450 518 33,000  Level Anchorage Center
05:27PM 55.7549 -176.4598 65° Northeast 466 536 33,000  Level FlightAware Transoceanic
05:27PM 55.7833 -176.2500 59° Northeast 460 529 33,000  Level Anchorage Center
05:28PM 55.8100 -176.2454 66° East 466 536 33,000  Level FlightAware Transoceanic
05:28PM 55.8333 -176.0333 68° East 460 529 33,000  Level Anchorage Center
05:29PM 55.8647 -176.0304 66° East 466 536 33,000  Level FlightAware Transoceanic
05:29PM 55.8833 -175.8333 66° East 470 541 33,000  Level Anchorage Center
05:30PM 55.9190 -175.8148 66° East 466 536 33,000  Level FlightAware Transoceanic
05:30PM 55.9500 -175.6167 61° Northeast 470 541 33,000  Level Anchorage Center
05:31PM 56.0000 -175.4000 67° East 470 541 33,000  Level Anchorage Center
05:32PM 56.0333 -175.1833 75° East 470 541 33,000  Level Anchorage Center
05:33PM 56.1000 -174.9667 61° Northeast 470 541 33,000  Level Anchorage Center
05:34PM 56.1500 -174.7500 67° East 470 541 33,000  Level Anchorage Center
05:35PM 56.2000 -174.5333 67° East 480 552 33,000  Level Anchorage Center
05:36PM 56.2500 -174.3500 64° Northeast 480 552 33,000  Level Anchorage Center
05:37PM 56.3000 -174.1333 67° East 470 541 33,000  Level Anchorage Center
05:38PM 56.3500 -173.9000 69° East 490 564 33,000  Level Anchorage Center
05:39PM 56.4000 -173.6667 69° East 490 564 33,000  Level Anchorage Center
05:40PM 56.4500 -173.4500 67° East 480 552 33,000  Level Anchorage Center
05:41PM 56.5000 -173.2167 69° East 480 552 33,000  Level Anchorage Center
05:42PM 56.5500 -173.0000 67° East 480 552 33,000  Level Anchorage Center
05:43PM 56.6000 -172.7667 69° East 480 552 33,000  Level Anchorage Center
05:44PM 56.6500 -172.5500 67° East 470 541 33,000  Level Anchorage Center
05:45PM 56.7000 -172.3167 69° East 470 541 33,000  Level Anchorage Center
05:46PM 56.7500 -172.1000 67° East 470 541 33,000  Level Anchorage Center
05:47PM 56.8000 -171.8667 69° East 470 541 33,000  Level Anchorage Center
05:48PM 56.8500 -171.6500 67° East 470 541 33,000  Level Anchorage Center
05:49PM 56.9000 -171.4333 67° East 470 541 33,000  Level Anchorage Center
05:50PM 56.9500 -171.2000 68° East 460 529 33,000  Level Anchorage Center
05:51PM 57.0000 -170.9833 67° East 470 541 33,000  Level Anchorage Center
05:52PM 57.0333 -170.7500 75° East 470 541 33,000  Level Anchorage Center
05:53PM 57.0833 -170.5333 67° East 470 541 33,000  Level Anchorage Center
05:57PM 57.2333 -169.7667 70° East 460 529 33,000  Level Anchorage Center
05:58PM 57.2833 -169.5500 67° East 500 575 33,000  Level Anchorage Center
05:59PM 57.3333 -169.3167 68° East 470 541 33,000  Level Anchorage Center
06:00PM 57.3667 -169.0833 75° East 470 541 33,000  Level Anchorage Center
06:01PM 57.4167 -168.8500 68° East 460 529 33,000  Level Anchorage Center
06:02PM 57.4500 -168.6667 71° East 470 541 33,000  Level Anchorage Center
06:03PM 57.5000 -168.4500 67° East 460 529 33,000  Level Anchorage Center
06:04PM 57.5333 -168.2167 75° East 460 529 33,000  Level Anchorage Center
06:05PM 57.5833 -167.9833 68° East 460 529 33,000  Level Anchorage Center
06:06PM 57.6167 -167.7500 75° East 460 529 33,000  Level Anchorage Center
06:07PM 57.6667 -167.5333 67° East 460 529 33,000  Level Anchorage Center
06:08PM 57.7000 -167.3000 75° East 460 529 33,000  Level Anchorage Center
06:09PM 57.7500 -167.0667 68° East 470 541 33,000  Level Anchorage Center
06:10PM 57.7833 -166.8333 75° East 460 529 33,000  Level Anchorage Center
06:11PM 57.8167 -166.6000 75° East 460 529 33,000  Level Anchorage Center
06:12PM 57.8667 -166.3667 68° East 460 529 33,000  Level Anchorage Center
06:13PM 57.9000 -166.1333 75° East 460 529 33,000  Level Anchorage Center
06:14PM 57.9500 -165.8500 71° East 470 541 33,000  Level Anchorage Center
06:15PM 57.9833 -165.6167 75° East 460 529 33,000  Level Anchorage Center
06:16PM 58.0167 -165.3833 75° East 460 529 33,000  Level Anchorage Center
06:17PM 58.0500 -165.1500 75° East 470 541 33,000  Level Anchorage Center
06:18PM 58.0667 -164.9000 83° East 460 529 33,000  Level Anchorage Center
06:19PM 58.0667 -164.6500 90° East 470 541 33,000  Level Anchorage Center
06:20PM 58.0667 -164.4000 90° East 470 541 33,000  Level Anchorage Center
06:21PM 58.0667 -164.1500 90° East 470 541 33,000  Level Anchorage Center
06:22PM 58.0833 -163.9000 83° East 470 541 33,000  Level Anchorage Center
06:23PM 58.0833 -163.6500 90° East 480 552 33,000  Level Anchorage Center
06:24PM 58.0833 -163.4000 90° East 480 552 33,000  Level Anchorage Center
06:25PM 58.1000 -163.1500 83° East 480 552 33,000  Level Anchorage Center
06:26PM 58.1000 -162.8833 90° East 470 541 33,000  Level Anchorage Center
06:27PM 58.1000 -162.6333 90° East 480 552 33,000  Level Anchorage Center
06:28PM 58.1000 -162.3833 90° East 470 541 33,000  Level Anchorage Center
06:29PM 58.1000 -162.1333 90° East 470 541 33,000  Level Anchorage Center
06:30PM 58.1000 -161.8833 90° East 470 541 33,000  Level Anchorage Center
06:31PM 58.1000 -161.6333 90° East 480 552 33,000  Level Anchorage Center
06:32PM 58.1000 -161.3833 90° East 480 552 33,000  Level Anchorage Center
06:33PM 58.1000 -161.1167 90° East 480 552 33,000  Level Anchorage Center
06:34PM 58.1000 -160.8667 90° East 490 564 33,000  Level Anchorage Center
06:35PM 58.1000 -160.6000 90° East 490 564 33,000  Level Anchorage Center
06:36PM 58.1000 -160.3500 90° East 490 564 33,000  Level Anchorage Center
06:37PM 58.1000 -160.0833 90° East 500 575 33,000  Level Anchorage Center
06:38PM 58.0833 -159.8167 97° East 490 564 33,000  Level Anchorage Center
06:39PM 58.0833 -159.5500 90° East 500 575 33,000  Level Anchorage Center
06:40PM 58.0833 -159.2833 90° East 500 575 33,000  Level Anchorage Center
06:41PM 58.0833 -159.0167 90° East 500 575 33,000  Level Anchorage Center
06:42PM 58.0667 -158.7667 97° East 500 575 33,000  Level Anchorage Center
06:43PM 58.0667 -158.5000 90° East 490 564 33,000  Level Anchorage Center
06:44PM 58.0667 -158.2333 90° East 490 564 33,000  Level Anchorage Center
06:45PM 58.0500 -157.9833 97° East 490 564 33,000  Level Anchorage Center
06:46PM 58.0500 -157.7167 90° East 500 575 33,000  Level Anchorage Center
06:47PM 58.0333 -157.4500 97° East 500 575 33,000  Level Anchorage Center
06:49PM 58.0167 -156.9167 93° East 500 575 33,000  Level Anchorage Center
06:50PM 58.0167 -156.6500 90° East 500 575 33,000  Level Anchorage Center
06:51PM 58.0000 -156.4000 97° East 500 575 33,000  Level Anchorage Center
06:52PM 57.9833 -156.1167 96° East 500 575 33,000  Level Anchorage Center
06:53PM 57.9667 -155.8667 97° East 490 564 33,000  Level Anchorage Center
06:54PM 57.9667 -155.6000 90° East 500 575 33,000  Level Anchorage Center
06:55PM 57.9500 -155.3333 97° East 500 575 33,000  Level Anchorage Center
06:56PM 57.9333 -155.0667 97° East 500 575 33,000  Level Anchorage Center
06:57PM 57.9167 -154.8000 97° East 500 575 33,000  Level Anchorage Center
06:58PM 57.9167 -154.5500 90° East 500 575 33,000  Level Anchorage Center
06:59PM 57.9000 -154.2833 97° East 510 587 33,000  Level Anchorage Center
07:00PM 57.8833 -154.0167 97° East 500 575 33,000  Level Anchorage Center
07:01PM 57.8667 -153.7500 97° East 510 587 33,000  Level Anchorage Center
07:02PM 57.8500 -153.5000 97° East 500 575 33,000  Level Anchorage Center
07:03PM 57.8333 -153.1833 96° East 500 575 33,000  Level Anchorage Center
07:04PM 57.8167 -152.9167 97° East 500 575 33,000  Level Anchorage Center
07:05PM 57.7833 -152.6500 103° East 500 575 33,000  Level Anchorage Center
07:06PM 57.7667 -152.3833 97° East 520 598 33,000  Level Anchorage Center
07:07PM 57.7333 -152.1333 104° East 510 587 33,000  Level Anchorage Center
07:08PM 57.6833 -151.8833 110° East 510 587 33,000  Level Anchorage Center
07:09PM 57.6500 -151.6167 103° East 510 587 33,000  Level Anchorage Center
07:10PM 57.6000 -151.3667 110° East 510 587 33,000  Level Anchorage Center
07:11PM 57.5667 -151.1167 104° East 510 587 33,000  Level Anchorage Center
07:12PM 57.5167 -150.8500 109° East 520 598 33,000  Level Anchorage Center
07:13PM 57.4667 -150.6000 110° East 520 598 33,000  Level Anchorage Center
07:14PM 57.4167 -150.3500 110° East 520 598 33,000  Level Anchorage Center
07:15PM 57.3833 -150.0833 103° East 520 598 33,000  Level Anchorage Center
07:16PM 57.3333 -149.8333 110° East 520 598 33,000  Level Anchorage Center
07:17PM 57.3000 -149.5667 103° East 530 610 33,000  Level Anchorage Center
07:18PM 57.2667 -149.3667 107° East 510 587 33,000  Level Anchorage Center
07:19PM 57.2000 -149.0667 112° Southeast 520 598 33,000  Level Anchorage Center
07:20PM 57.1667 -148.8000 103° East 520 598 33,000  Level Anchorage Center
07:21PM 57.1167 -148.5333 109° East 530 610 33,000  Level Anchorage Center
07:22PM 57.0667 -148.2833 110° East 520 598 33,000  Level Anchorage Center
07:23PM 57.0167 -148.0333 110° East 520 598 33,000  Level Anchorage Center
07:24PM 56.9667 -147.7833 110° East 520 598 33,000  Level Anchorage Center
07:25PM 56.9333 -147.5167 103° East 520 598 33,000  Level Anchorage Center
07:26PM 56.8833 -147.2667 110° East 520 598 33,000  Level Anchorage Center
07:27PM 56.8333 -147.0167 110° East 520 598 33,000  Level Anchorage Center
07:28PM 56.7833 -146.7667 110° East 530 610 33,000  Level Anchorage Center
07:29PM 56.7333 -146.5167 110° East 520 598 33,000  Level Anchorage Center
07:30PM 56.6833 -146.2667 110° East 530 610 33,000  Level Anchorage Center
07:31PM 56.6333 -146.0167 110° East 520 598 33,000  Level Anchorage Center
07:32PM 56.5667 -145.7667 116° Southeast 530 610 33,000  Level Anchorage Center
07:33PM 56.5167 -145.5167 110° East 530 610 33,000  Level Anchorage Center
07:34PM 56.4667 -145.2667 110° East 530 610 33,000  Level Anchorage Center
07:35PM 56.4167 -145.0000 109° East 530 610 33,000  Level Anchorage Center
07:36PM 56.3667 -144.7500 110° East 530 610 33,000  Level Anchorage Center
07:37PM 56.3000 -144.5000 116° Southeast 530 610 33,000  Level Anchorage Center
07:38PM 56.2500 -144.2500 110° East 530 610 33,000  Level Anchorage Center
07:40PM 56.1333 -143.7500 113° Southeast 540 621 33,000  Level Anchorage Center
07:41PM 56.0667 -143.5000 115° Southeast 540 621 33,000  Level Anchorage Center
07:44PM 55.9689 -143.0861 113° Southeast  Level FlightAware Approximate
07:47PM 55.7000 -141.9333 114° Southeast 540 621 33,000  Level Anchorage Center
07:48PM 55.6333 -141.6833 115° Southeast 550 633 33,000  Level Anchorage Center
07:49PM 55.5667 -141.4333 115° Southeast 550 633 33,000  Level Anchorage Center
07:50PM 55.5000 -141.1833 115° Southeast 550 633 33,000  Level Anchorage Center
07:51PM 55.5600 -141.4362 113° Southeast  Level FlightAware Approximate
07:51PM 55.4333 -140.9333 115° Southeast 550 633 33,000  Level Anchorage Center
07:52PM 55.4998 -141.2034 114° Southeast  Level FlightAware Approximate
07:52PM 55.3833 -140.7500 116° Southeast 540 621 33,000  Level Anchorage Center
07:53PM 55.3167 -140.4500 111° Southeast 540 621 33,000  Level Anchorage Center
07:54PM 55.2500 -140.2167 117° Southeast 550 633 33,000  Level Anchorage Center
07:55PM 55.1833 -139.9667 115° Southeast 560 644 33,000  Level Anchorage Center
07:56PM 55.1167 -139.7333 116° Southeast 550 633 33,000  Level Anchorage Center
07:57PM 55.0667 -139.6667 143° Southeast 550 633 33,000  Level Vancouver Center
07:57PM 55.0500 -139.4833 99° East 540 621 33,000  Level Anchorage Center
07:58PM 54.9667 -139.2333 120° Southeast 560 644 33,000  Level Anchorage Center
07:59PM 54.9000 -139.0000 116° Southeast 550 633 33,000  Level Anchorage Center
08:00PM 54.8667 -138.9500 139° Southeast 550 633 33,000  Level Vancouver Center
08:00PM 54.8333 -138.7667 107° East 550 633 33,000  Level Anchorage Center
08:01PM 54.7667 -138.5333 116° Southeast 550 633 33,000  Level Anchorage Center
08:02PM 54.7167 -138.4500 136° Southeast 550 633 33,000  Level Vancouver Center
08:03PM 54.6667 -138.2333 112° Southeast 560 644 33,000  Level Vancouver Center
08:03PM 54.6333 -138.0667 109° East 540 621 33,000  Level Anchorage Center
08:04PM 54.5833 -138.0000 142° Southeast 550 633 33,000  Level Vancouver Center
08:05PM 54.5167 -137.7667 116° Southeast 550 633 33,000  Level Vancouver Center
08:06PM 54.4333 -137.5167 120° Southeast 550 633 33,000  Level Vancouver Center
08:06PM 54.4167 -137.3667 101° East 550 633 33,000  Level Anchorage Center
08:07PM 54.3500 -137.1333 116° Southeast 550 633 33,000  Level Anchorage Center
08:08PM 54.3000 -137.0667 142° Southeast 560 644 33,000  Level Vancouver Center
08:09PM 54.2333 -136.8333 116° Southeast 550 633 33,000  Level Vancouver Center
08:10PM 54.1667 -136.6167 118° Southeast 550 633 33,000  Level Vancouver Center
08:10PM 54.1333 -136.4333 107° East 560 644 33,000  Level Anchorage Center
08:11PM 54.0833 -136.3667 142° Southeast 560 644 33,000  Level Vancouver Center
08:12PM 54.0000 -136.1333 121° Southeast 550 633 33,000  Level Vancouver Center
08:12PM 53.9833 -135.9667 100° East 540 621 33,000  Level Anchorage Center
08:13PM 53.9167 -135.7333 116° Southeast 550 633 33,000  Level Anchorage Center
08:14PM 53.8500 -135.5000 116° Southeast 550 633 33,000  Level Anchorage Center
08:15PM 53.8000 -135.2667 110° East 550 633 33,000  Level Anchorage Center
08:16PM 53.7500 -135.1833 135° Southeast 560 644 33,000  Level Vancouver Center
08:16PM 53.7333 -135.0167 100° East 550 633 33,000  Level Anchorage Center
08:18PM 53.6167 -134.6833 120° Southeast 560 644 33,000  Level Vancouver Center
08:19PM 53.5500 -134.4667 117° Southeast 560 644 33,000  Level Vancouver Center
08:20PM 53.4833 -134.2333 116° Southeast 560 644 33,000  Level Vancouver Center
08:21PM 53.4167 -133.9833 114° Southeast 560 644 33,000  Level Vancouver Center
08:22PM 53.3500 -133.7667 117° Southeast 560 644 33,000  Level Vancouver Center
08:23PM 53.2833 -133.5333 115° Southeast 560 644 33,000  Level Vancouver Center
08:24PM 53.2167 -133.3000 115° Southeast 560 644 33,000  Level Vancouver Center
08:25PM 53.1500 -133.0500 114° Southeast 560 644 33,000  Level Vancouver Center
08:26PM 53.0833 -132.8500 119° Southeast 560 644 33,000  Level Vancouver Center
08:27PM 53.0167 -132.6000 114° Southeast 560 644 33,000  Level Vancouver Center
08:28PM 52.9500 -132.3667 115° Southeast 560 644 33,000  Level Vancouver Center
08:29PM 52.8667 -132.1333 121° Southeast 560 644 33,000  Level Vancouver Center
08:30PM 52.8000 -131.9333 119° Southeast 560 644 33,000  Level Vancouver Center
08:31PM 52.7333 -131.7000 115° Southeast 560 644 33,000  Level Vancouver Center
08:32PM 52.6667 -131.4667 115° Southeast 560 644 33,000  Level Vancouver Center
08:33PM 52.5833 -131.2167 119° Southeast 560 644 33,000  Level Vancouver Center
08:34PM 52.5167 -131.0167 119° Southeast 560 644 33,000  Level Vancouver Center
08:35PM 52.4333 -130.7833 120° Southeast 560 644 33,000  Level Vancouver Center
08:36PM 52.3667 -130.5500 115° Southeast 560 644 33,000  Level Vancouver Center
08:37PM 52.3000 -130.3500 119° Southeast 560 644 33,000  Level Vancouver Center
08:38PM 52.2167 -130.1167 120° Southeast 560 644 33,000  Level Vancouver Center
08:39PM 52.1333 -129.9000 122° Southeast 560 644 33,000  Level Vancouver Center
08:40PM 52.0667 -129.6667 115° Southeast 560 644 33,000  Level Vancouver Center
08:41PM 52.0000 -129.4333 115° Southeast 560 644 33,000  Level Vancouver Center
08:42PM 51.9167 -129.2167 122° Southeast 570 656 33,000  Level Vancouver Center
08:43PM 51.8333 -128.9833 120° Southeast 570 656 33,000 660 Level Vancouver Center
08:44PM 51.7500 -128.7833 124° Southeast 570 656 34,400 960 Climbing Vancouver Center
08:45PM 51.6833 -128.5667 116° Southeast 560 644 35,000 300 Climbing Vancouver Center
08:46PM 51.6000 -128.3500 122° Southeast 560 644 35,000  Level Vancouver Center
08:47PM 51.5167 -128.1167 120° Southeast 560 644 35,000  Level Vancouver Center
08:48PM 51.4333 -127.9000 122° Southeast 560 644 35,000  Level Vancouver Center
08:49PM 51.3667 -127.7000 118° Southeast 560 644 35,000  Level Vancouver Center
08:50PM 51.2833 -127.4833 122° Southeast 560 644 35,000  Level Vancouver Center
08:51PM 51.2000 -127.2667 121° Southeast 560 644 35,000  Level Vancouver Center
08:52PM 51.1333 -127.0667 118° Southeast 560 644 35,000  Level Vancouver Center
08:53PM 51.0333 -126.8333 124° Southeast 560 644 35,000  Level Vancouver Center
08:54PM 50.9500 -126.6333 123° Southeast 560 644 35,000  Level Vancouver Center
08:55PM 50.8833 -126.4167 116° Southeast 560 644 35,000  Level Vancouver Center
08:56PM 50.8000 -126.2000 121° Southeast 560 644 35,000  Level Vancouver Center
08:57PM 50.7167 -126.0167 126° Southeast 560 644 35,000  Level Vancouver Center
09:02PM 50.2690 -124.8590 126° Southeast 551 634 35,000  Level FlightAware
09:03PM 50.2070 -124.7100 123° Southeast 550 633 35,000  Level FlightAware
09:04PM 50.1440 -124.5600 123° Southeast 548 631 35,000  Level FlightAware
09:05PM 50.0670 -124.3770 123° Southeast 552 635 35,000  Level FlightAware
09:05PM 50.0130 -124.2490 123° Southeast 544 626 35,000  Level FlightAware
09:06PM 49.9630 -124.1320 124° Southeast 542 624 35,000  Level FlightAware
09:07PM 49.8990 -123.9820 123° Southeast 547 629 35,000  Level FlightAware
09:07PM 49.8430 -123.8520 124° Southeast 547 629 35,000  Level FlightAware
09:08PM 49.7890 -123.7260 124° Southeast 547 629 35,000  Level FlightAware
09:09PM 49.7240 -123.5760 124° Southeast 546 628 35,000  Level FlightAware
09:09PM 49.6690 -123.4490 124° Southeast 546 628 35,000  Level FlightAware
09:10PM 49.6060 -123.3070 124° Southeast 544 626 35,000  Level FlightAware
09:11PM 49.5480 -123.1760 124° Southeast 542 624 35,000  Level FlightAware
09:11PM 49.4940 -123.0530 124° Southeast 539 620 35,000  Level FlightAware
09:12PM 49.4360 -122.9220 124° Southeast 540 621 35,000  Level FlightAware
09:13PM 49.3730 -122.7810 124° Southeast 538 619 35,000  Level FlightAware
09:13PM 49.3160 -122.6550 125° Southeast 539 620 35,000  Level FlightAware
09:14PM 49.2500 -122.5090 125° Southeast 539 620 35,000  Level FlightAware
09:15PM 49.1920 -122.3800 124° Southeast 537 618 35,000  Level FlightAware
09:15PM 49.1450 -122.2770 125° Southeast 536 617 35,000  Level FlightAware
09:17PM 48.9930 -121.9470 125° Southeast 536 617 35,000  Level FlightAware
09:18PM 48.8930 -121.7320 125° Southeast 534 615 35,000  Level FlightAware
09:20PM 48.7930 -121.5190 125° Southeast 533 613 35,000  Level FlightAware
09:21PM 48.6780 -121.2740 125° Southeast 531 611 35,000  Level FlightAware
09:22PM 48.5740 -121.0420 124° Southeast 529 609 35,000  Level FlightAware
09:23PM 48.4820 -120.8200 122° Southeast 525 604 35,000  Level FlightAware
09:25PM 48.3910 -120.6080 123° Southeast 522 601 35,000  Level FlightAware
09:26PM 48.2980 -120.3920 123° Southeast 524 603 35,000  Level FlightAware
09:27PM 48.1870 -120.1390 123° Southeast 525 604 35,000  Level FlightAware
09:28PM 48.1430 -120.0370 123° Southeast 525 604 35,000  Level FlightAware
09:28PM 48.0980 -119.9340 123° Southeast 525 604 35,000  Level FlightAware
09:29PM 48.0420 -119.8040 123° Southeast 525 604 35,000  Level FlightAware
09:30PM 47.9970 -119.7010 123° Southeast 525 604 35,000  Level FlightAware
09:31PM 47.9520 -119.5970 123° Southeast 525 604 35,000  Level FlightAware
09:31PM 47.9070 -119.4940 123° Southeast 525 604 35,000  Level FlightAware
09:32PM 47.8620 -119.3910 123° Southeast 525 604 35,000  Level FlightAware
09:33PM 47.8060 -119.2620 123° Southeast 525 604 35,000  Level FlightAware
09:33PM 47.7610 -119.1580 123° Southeast 525 604 35,000  Level FlightAware
09:34PM 47.7160 -119.0560 123° Southeast 525 604 35,000  Level FlightAware
09:35PM 47.6710 -118.9530 123° Southeast 525 604 35,000  Level FlightAware
09:35PM 47.6260 -118.8500 123° Southeast 525 604 35,000  Level FlightAware
09:36PM 47.5700 -118.7210 123° Southeast 525 604 35,000  Level FlightAware
09:37PM 47.5250 -118.6190 123° Southeast 525 604 35,000  Level FlightAware
09:37PM 47.3656 -118.3042 123° Southeast 526 605 35,000  Level Salt Lake Center
09:38PM 47.3328 -118.2336 124° Southeast 526 605 35,000  Level Seattle Center
09:39PM 47.2514 -118.0589 124° Southeast 522 601 35,000  Level Seattle Center
09:40PM 47.1536 -117.8500 124° Southeast 521 600 35,000  Level Seattle Center
09:41PM 47.0747 -117.6769 124° Southeast 517 595 35,000  Level Seattle Center
09:42PM 47.0083 -117.4908 118° Southeast 519 597 35,000  Level Seattle Center
09:43PM 46.9467 -117.3053 116° Southeast 515 593 35,000  Level Seattle Center
09:44PM 46.8839 -117.1200 116° Southeast 514 592 35,000  Level Seattle Center
09:45PM 46.8203 -116.9322 116° Southeast 517 595 35,000  Level Seattle Center
09:46PM 46.7578 -116.7425 116° Southeast 522 601 35,000  Level Seattle Center
09:47PM 46.6947 -116.5583 116° Southeast 514 592 35,000  Level Seattle Center
09:48PM 46.6311 -116.3750 117° Southeast 511 588 35,000  Level Seattle Center
09:49PM 46.5669 -116.1911 117° Southeast 512 589 35,000  Level Seattle Center
09:50PM 46.5028 -116.0067 117° Southeast 513 590 35,000  Level Seattle Center
09:51PM 46.4394 -115.8272 117° Southeast 506 582 35,000  Level Seattle Center
09:52PM 46.3747 -115.6422 117° Southeast 513 590 35,000  Level Seattle Center
09:53PM 46.2972 -115.4214 117° Southeast 515 593 35,000  Level Seattle Center
09:54PM 46.2575 -115.3133 118° Southeast 514 592 35,000  Level Salt Lake Center
09:55PM 46.1864 -115.1136 117° Southeast 512 589 35,000  Level Salt Lake Center
09:56PM 46.1217 -114.9342 117° Southeast 509 586 35,000  Level Salt Lake Center
09:57PM 46.0469 -114.7292 118° Southeast 510 587 35,000 120 Level Salt Lake Center
09:58PM 45.9839 -114.5561 118° Southeast 510 587 35,300 480 Climbing Salt Lake Center
09:59PM 45.9119 -114.3625 118° Southeast 505 581 36,100 720 Climbing Salt Lake Center
10:00PM 45.8450 -114.1806 118° Southeast 512 589 36,800 420 Climbing Salt Lake Center
10:01PM 45.7761 -113.9994 119° Southeast 519 597 37,000 60 Climbing Salt Lake Center
10:02PM 45.7092 -113.8186 118° Southeast 516 594 37,000  Level Salt Lake Center
10:03PM 45.6411 -113.6406 119° Southeast 513 590 37,000  Level Salt Lake Center
10:04PM 45.5725 -113.4597 118° Southeast 518 596 37,000  Level Salt Lake Center
10:05PM 45.4894 -113.2450 119° Southeast 517 595 37,000  Level Salt Lake Center
10:06PM 45.4211 -113.0694 119° Southeast 511 588 37,000  Level Salt Lake Center
10:07PM 45.3536 -112.8942 119° Southeast 507 583 37,000  Level Salt Lake Center
10:08PM 45.2875 -112.7222 119° Southeast 514 592 37,000  Level Salt Lake Center
10:09PM 45.2092 -112.5233 119° Southeast 518 596 37,000  Level Salt Lake Center
10:10PM 45.1411 -112.3564 120° Southeast 513 590 37,000  Level Salt Lake Center
10:11PM 45.0642 -112.1619 119° Southeast 509 586 37,000  Level Salt Lake Center
10:12PM 44.9972 -111.9964 120° Southeast 507 583 37,000  Level Salt Lake Center
10:13PM 44.9219 -111.8381 124° Southeast 506 582 37,000  Level Salt Lake Center
10:14PM 44.8317 -111.6542 125° Southeast 509 586 37,000  Level Salt Lake Center
10:15PM 44.7539 -111.4964 125° Southeast 509 586 37,000  Level Salt Lake Center
10:16PM 44.6744 -111.3381 125° Southeast 509 586 37,000  Level Salt Lake Center
10:17PM 44.5839 -111.1531 124° Southeast 506 582 37,000  Level Salt Lake Center
10:18PM 44.5058 -110.9944 125° Southeast 511 588 37,000  Level Salt Lake Center
10:19PM 44.4269 -110.8369 125° Southeast 513 590 37,000  Level Salt Lake Center
10:20PM 44.3342 -110.6550 125° Southeast 515 593 37,000  Level Salt Lake Center
10:21PM 44.2550 -110.4983 125° Southeast 514 592 37,000  Level Salt Lake Center
10:22PM 44.1617 -110.3156 125° Southeast 518 596 37,000  Level Salt Lake Center
10:23PM 44.0817 -110.1606 126° Southeast 516 594 37,000  Level Salt Lake Center
10:25PM 44.0011 -110.0047 126° Southeast 519 597 37,000  Level Salt Lake Center
10:26PM 43.9122 -109.8206 124° Southeast 516 594 37,000  Level Salt Lake Center
10:27PM 43.8369 -109.6642 124° Southeast 511 588 37,000  Level Salt Lake Center
10:28PM 43.7467 -109.4819 124° Southeast 513 590 37,000  Level Salt Lake Center
10:29PM 43.6722 -109.3314 124° Southeast 508 585 37,000  Level Salt Lake Center
10:30PM 43.5817 -109.1486 124° Southeast 516 594 37,000  Level Salt Lake Center
10:31PM 43.5033 -108.9925 125° Southeast 519 597 37,000  Level Salt Lake Center
10:32PM 43.4108 -108.8094 125° Southeast 521 600 37,000  Level Salt Lake Center
10:33PM 43.3328 -108.6522 124° Southeast 520 598 37,000  Level Salt Lake Center
10:34PM 43.2400 -108.4719 125° Southeast 519 597 37,000  Level Salt Lake Center
10:35PM 43.1619 -108.3158 124° Southeast 519 597 37,000  Level Salt Lake Center
10:36PM 43.0825 -108.1622 125° Southeast 517 595 37,000  Level Salt Lake Center
10:37PM 42.9911 -107.9831 125° Southeast 516 594 37,000  Level Salt Lake Center
10:38PM 42.9078 -107.8097 123° Southeast 515 593 37,000  Level Salt Lake Center
10:39PM 42.8317 -107.6528 123° Southeast 516 594 37,000  Level Salt Lake Center
10:40PM 42.7425 -107.4706 124° Southeast 517 595 37,000  Level Salt Lake Center
10:41PM 42.6650 -107.3144 124° Southeast 519 597 37,000  Level Salt Lake Center
10:47PM 42.1960 -106.3810 124° Southeast 526 605 37,000  Level FlightAware
10:48PM 42.1280 -106.2460 124° Southeast 526 605 37,000  Level FlightAware
10:48PM 42.0760 -106.1450 125° Southeast 524 603 37,000  Level FlightAware
10:49PM 42.0180 -106.0300 124° Southeast 524 603 37,000  Level FlightAware
10:50PM 41.9490 -105.8960 125° Southeast 524 603 37,000  Level FlightAware
10:50PM 41.8920 -105.7770 123° Southeast 522 601 37,000  Level FlightAware
10:51PM 41.8430 -105.6720 122° Southeast 522 601 37,000  Level FlightAware
10:52PM 41.7780 -105.5450 124° Southeast 525 604 37,000  Level FlightAware
10:52PM 41.7250 -105.4360 123° Southeast 522 601 37,000  Level FlightAware
10:53PM 41.6560 -105.2950 123° Southeast 522 601 37,000  Level FlightAware
10:54PM 41.6110 -105.2020 123° Southeast 522 601 37,000  Level FlightAware
10:55PM 41.5385 -105.0610 124° Southeast 521 600 37,000  Level FlightAware ADS-B
10:55PM 41.4986 -104.9810 124° Southeast 521 600 37,000  Level FlightAware ADS-B
10:56PM 41.4579 -104.9000 124° Southeast 523 602 37,000  Level FlightAware ADS-B
10:56PM 41.4129 -104.8100 124° Southeast 523 602 37,000  Level FlightAware ADS-B
10:57PM 41.3722 -104.7290 124° Southeast 521 600 37,000  Level FlightAware ADS-B
10:57PM 41.3278 -104.6410 124° Southeast 517 595 37,000  Level FlightAware ADS-B
10:58PM 41.2862 -104.5590 124° Southeast 516 594 37,000  Level FlightAware ADS-B
10:58PM 41.2455 -104.4790 124° Southeast 514 592 37,000  Level FlightAware ADS-B
10:59PM 41.2051 -104.3990 124° Southeast 513 590 37,000  Level FlightAware ADS-B
10:59PM 41.1646 -104.3200 124° Southeast 512 589 37,000  Level FlightAware ADS-B
11:00PM 41.1246 -104.2420 124° Southeast 513 590 37,000  Level FlightAware ADS-B
11:00PM 41.0841 -104.1630 124° Southeast 515 593 37,000  Level FlightAware ADS-B
11:01PM 41.0434 -104.0840 124° Southeast 517 595 37,000  Level FlightAware ADS-B
11:01PM 41.0026 -104.0050 124° Southeast 518 596 37,000  Level FlightAware ADS-B
11:02PM 40.9624 -103.9240 123° Southeast 519 597 37,000  Level FlightAware ADS-B
11:02PM 40.9232 -103.8430 123° Southeast 520 598 37,000  Level FlightAware ADS-B
11:03PM 40.8842 -103.7620 122° Southeast 522 601 37,000  Level FlightAware ADS-B
11:03PM 40.8434 -103.6780 123° Southeast 522 601 37,000  Level FlightAware ADS-B
11:04PM 40.8040 -103.5970 123° Southeast 521 600 37,000  Level FlightAware ADS-B
11:04PM 40.7642 -103.5160 123° Southeast 522 601 37,000  Level FlightAware ADS-B
11:05PM 40.7246 -103.4360 123° Southeast 523 602 37,000  Level FlightAware ADS-B
11:05PM 40.6848 -103.3550 123° Southeast 524 603 37,000  Level FlightAware ADS-B
11:06PM 40.6418 -103.2680 123° Southeast 524 603 37,000  Level FlightAware ADS-B
11:07PM 40.6019 -103.1880 123° Southeast 523 602 37,000  Level FlightAware ADS-B
11:07PM 40.5614 -103.1070 123° Southeast 523 602 37,000  Level FlightAware ADS-B
11:08PM 40.5210 -103.0260 123° Southeast 524 603 37,000  Level FlightAware ADS-B
11:08PM 40.4802 -102.9440 123° Southeast 524 603 37,000  Level FlightAware ADS-B
11:09PM 40.4394 -102.8630 123° Southeast 523 602 37,000  Level FlightAware ADS-B
11:09PM 40.3978 -102.7810 124° Southeast 524 603 37,000  Level FlightAware ADS-B
11:10PM 40.3567 -102.6990 123° Southeast 525 604 37,000  Level FlightAware ADS-B
11:10PM 40.3159 -102.6180 123° Southeast 525 604 37,000  Level FlightAware ADS-B
11:11PM 40.2743 -102.5360 124° Southeast 524 603 37,000  Level FlightAware ADS-B
11:11PM 40.2339 -102.4560 123° Southeast 523 602 37,000  Level FlightAware ADS-B
11:12PM 40.1933 -102.3770 124° Southeast 522 601 37,000  Level FlightAware ADS-B
11:12PM 40.1528 -102.2970 124° Southeast 521 600 37,000  Level FlightAware ADS-B
11:13PM 40.1119 -102.2180 124° Southeast 520 598 37,000  Level FlightAware ADS-B
11:13PM 40.0719 -102.1400 124° Southeast 519 597 37,000  Level FlightAware ADS-B
11:14PM 40.0315 -102.0610 124° Southeast 519 597 37,000  Level FlightAware ADS-B
11:14PM 39.9888 -101.9820 125° Southeast 520 598 37,000  Level FlightAware ADS-B
11:15PM 39.9449 -101.9070 127° Southeast 520 598 37,000  Level FlightAware ADS-B
11:15PM 39.8996 -101.8310 128° Southeast 520 598 37,000  Level FlightAware ADS-B
11:18PM 39.6132 -101.3540 128° Southeast 519 597 37,000  Level FlightAware ADS-B
11:19PM 39.5684 -101.2800 128° Southeast 520 598 37,000  Level FlightAware ADS-B
11:19PM 39.5235 -101.2060 128° Southeast 520 598 37,000  Level FlightAware ADS-B
11:20PM 39.4721 -101.1210 128° Southeast 519 597 37,000  Level FlightAware ADS-B
11:20PM 39.4481 -101.0817 128° Southeast 520 598 37,000  Level Kansas City Center
11:21PM 39.3628 -100.9411 128° Southeast 519 597 37,000  Level Kansas City Center
11:22PM 39.2633 -100.7772 128° Southeast 518 596 37,000  Level Kansas City Center
11:23PM 39.1836 -100.6297 125° Southeast 520 598 37,000  Level Kansas City Center
11:24PM 39.1017 -100.4828 126° Southeast 524 603 37,000  Level Kansas City Center
11:26PM 39.0100 -100.3231 126° Southeast 517 595 37,000  Level Denver Center
11:27PM 38.9119 -100.1531 127° Southeast 517 595 37,000  Level Denver Center
11:28PM 38.8300 -100.0111 127° Southeast 516 594 37,000  Level Denver Center
11:29PM 38.7483 -99.8678 126° Southeast 518 596 37,000  Level Denver Center
11:30PM 38.6781 -99.7478 127° Southeast 524 603 37,000  Level Denver Center
11:30PM 38.5853 -99.5708 124° Southeast 528 608 37,000  Level Kansas City Center
11:32PM 38.5225 -99.4206 118° Southeast 533 613 37,000  Level Kansas City Center
11:32PM 38.4392 -99.2214 118° Southeast 532 612 37,000  Level Kansas City Center
11:34PM 38.3689 -99.0578 119° Southeast 528 608 37,000  Level Kansas City Center
11:40PM 38.0060 -98.2300 119° Southeast 522 601 37,000  Level FlightAware
11:40PM 37.8850 -97.9860 122° Southeast 521 600 37,000  Level FlightAware
11:41PM 37.8320 -97.8800 122° Southeast 521 600 37,000  Level FlightAware
11:42PM 37.7830 -97.7800 122° Southeast 522 601 37,000  Level FlightAware
11:42PM 37.7240 -97.6610 122° Southeast 525 604 37,000  Level FlightAware
11:43PM 37.6730 -97.5600 123° Southeast 527 606 37,000  Level FlightAware
11:44PM 37.6230 -97.4600 122° Southeast 526 605 37,000  Level FlightAware
11:44PM 37.5610 -97.3380 123° Southeast 525 604 37,000  Level FlightAware
11:45PM 37.5120 -97.2330 120° Southeast 526 605 37,000  Level FlightAware
11:46PM 37.4630 -97.1100 117° Southeast 531 611 37,000  Level FlightAware
11:46PM 37.4210 -97.0010 116° Southeast 532 612 37,000  Level FlightAware
11:47PM 37.3720 -96.8750 116° Southeast 534 615 37,000  Level FlightAware
11:48PM 37.3310 -96.7700 116° Southeast 533 613 37,000  Level FlightAware
11:49PM 37.2830 -96.6500 117° Southeast 532 612 37,000  Level FlightAware
11:49PM 37.2330 -96.5230 116° Southeast 533 613 37,000  Level FlightAware
11:50PM 37.1930 -96.4190 116° Southeast 533 613 37,000  Level FlightAware
11:51PM 37.1650 -96.3480 116° Southeast 533 613 37,000  Level FlightAware
11:51PM 37.1280 -96.2530 116° Southeast 533 613 37,000  Level FlightAware
11:52PM 37.0920 -96.1590 116° Southeast 533 613 37,000  Level FlightAware
11:53PM 37.0550 -96.0640 116° Southeast 533 613 37,000  Level FlightAware
11:53PM 37.0090 -95.9460 116° Southeast 533 613 37,000  Level FlightAware
11:54PM 36.9720 -95.8520 116° Southeast 533 613 37,000  Level FlightAware
11:55PM 36.9350 -95.7580 116° Southeast 533 613 37,000  Level FlightAware
11:55PM 36.8990 -95.6630 115° Southeast 533 613 37,000  Level FlightAware
11:56PM 36.8620 -95.5690 116° Southeast 533 613 37,000  Level FlightAware
11:57PM 36.8160 -95.4520 116° Southeast 533 613 37,000  Level FlightAware
11:58PM 36.7790 -95.3570 116° Southeast 533 613 37,000  Level FlightAware
11:58PM 36.7420 -95.2630 116° Southeast 533 613 37,000  Level FlightAware
11:59PM 36.7060 -95.1690 116° Southeast 533 613 37,000  Level FlightAware
12:00AM 36.5417 -94.8200 116° Southeast 537 618 37,000  Level Memphis Center
12:01AM 36.4742 -94.6589 117° Southeast 531 611 37,000  Level Memphis Center
12:02AM 36.4047 -94.4953 118° Southeast 531 611 37,000  Level Memphis Center
12:03AM 36.3350 -94.3347 118° Southeast 536 617 37,000  Level Memphis Center
12:04AM 36.2672 -94.1717 117° Southeast 536 617 37,000  Level Memphis Center
12:05AM 36.2244 -93.9947 107° East 525 604 37,000  Level Memphis Center
12:06AM 36.1964 -93.8108 101° East 530 610 37,000  Level Memphis Center
12:07AM 36.1558 -93.6114 104° East 535 616 37,000  Level Memphis Center
12:08AM 36.1308 -93.4511 101° East 535 616 37,000  Level Memphis Center
12:09AM 36.0975 -93.2700 103° East 528 608 37,000 -120 Level Memphis Center
12:10AM 36.0664 -93.0864 102° East 533 613 36,800 -540 Descending Memphis Center
12:11AM 36.0347 -92.9058 102° East 525 604 36,000 -420 Descending Memphis Center
12:12AM 36.0008 -92.7225 103° East 537 618 36,000  Level Memphis Center
12:13AM 35.9686 -92.5394 102° East 537 618 36,000 -480 Level Memphis Center
12:14AM 35.9342 -92.3592 103° East 542 624 35,100 -1,740 Descending Memphis Center
12:15AM 35.9014 -92.1764 102° East 542 624 32,600 -2,640 Descending Memphis Center
12:16AM 35.8683 -91.9989 103° East 542 624 29,900 -2,460 Descending Memphis Center
12:17AM 35.8353 -91.8242 103° East 530 610 27,700 -2,160 Descending Memphis Center
12:18AM 35.7892 -91.6597 109° East 519 597 25,600 -2,100 Descending Memphis Center
12:19AM 35.7342 -91.5053 114° Southeast 508 585 23,500 -1,560 Descending Memphis Center
12:20AM 35.6750 -91.3461 115° Southeast 473 544 22,500 -1,440 Descending Memphis Center
12:21AM 35.6239 -91.2075 114° Southeast 451 519 20,700 -1,800 Descending Memphis Center
12:22AM 35.5747 -91.0742 114° Southeast 433 498 19,000 -1,680 Descending Memphis Center
12:23AM 35.5233 -90.9439 116° Southeast 421 484 17,400 -1,680 Descending Memphis Center
12:24AM 35.4739 -90.8186 116° Southeast 416 479 15,700 -1,740 Descending Memphis Center
12:25AM 35.4283 -90.6908 114° Southeast 411 473 14,000 -1,680 Descending Memphis Center
12:26AM 35.3806 -90.5658 115° Southeast 406 467 12,400 -1,260 Descending Memphis Center
12:27AM 35.3306 -90.4564 119° Southeast 387 445 11,500 -900 Descending Memphis Center
12:28AM 35.2681 -90.3594 128° Southeast 367 422 10,700 -840 Descending Memphis Center
12:29AM 35.2139 -90.2808 130° Southeast 347 399 9,900 -780 Descending Memphis Center
12:30AM 35.1594 -90.1969 128° Southeast 329 379 9,200 -840 Descending Memphis Center
12:31AM 35.1072 -90.1236 131° Southeast 307 353 8,300 -1,080 Descending Memphis Center
12:32AM 35.0167 -90.1000 168° South 262 302 7,100 -1,080 Descending KMEM
12:33AM 34.9500 -90.1000 180° South 259 298 6,100 -960 Descending KMEM
12:34AM 34.8833 -90.1000 180° South 248 285 5,200 -960 Descending KMEM
12:35AM 34.8167 -90.1000 180° South 242 278 4,200 -1,080 Descending KMEM
12:36AM 34.7983 -90.0383 110° East 194 223 3,200 -660 Descending Memphis Center
12:37AM 34.8419 -89.9878 44° Northeast 171 197 3,000 -120 Descending Memphis Center
12:38AM 34.8900 -89.9850 North 153 176 3,000 -480 Level Memphis Center
12:39AM 34.9333 -89.9833 North 157 181 2,100 -840 Descending KMEM
12:40AM 34.9833 -89.9833 360° North 148 170 1,300 -840 Descending KMEM
12:42AM 35.0333 -89.9667 12° North  Level FlightAware Approximate
12:49AM 35.0424 -89.9767 12° North  Level Estimated
12:50AM 35.0424 -89.9767 12° North  Level Estimated
12:51AM 35.0424 -89.9767 12° North  Level Estimated
12:52AM 35.0424 -89.9767 12° North  Level Estimated
12:53AM 35.0424 -89.9767 12° North  Level Estimated
12:54AM 35.0424 -89.9767 12° North  Level Estimated
12:55AM 35.0424 -89.9767 12° North  Level Estimated
12:56AM 35.0424 -89.9767 12° North  Level Estimated
12:57AM 35.0424 -89.9767 12° North  Level Estimated